createdAt,value
2024-01-17T00:00:14.607Z,95071.38
2024-01-17T00:02:42.240Z,95077.34
2024-01-17T00:05:11.210Z,95065.44
2024-01-17T00:07:38.582Z,95058.59
2024-01-17T00:10:06.048Z,95055.38
2024-01-17T00:12:34.306Z,95055.72
2024-01-17T00:15:01.484Z,95047.59
2024-01-17T00:17:28.676Z,95054.22
2024-01-17T00:19:55.771Z,95052.53
2024-01-17T00:22:22.729Z,95045.31
2024-01-17T00:24:50.551Z,95039.06
2024-01-17T00:27:18.471Z,95030.34
2024-01-17T00:29:46.936Z,95034.47
2024-01-17T00:32:15.097Z,95022.56
2024-01-17T00:34:42.107Z,95016.06
2024-01-17T00:37:10.594Z,95017.44
2024-01-17T00:39:37.614Z,95002.66
2024-01-17T00:42:04.936Z,95013.06
2024-01-17T00:44:31.913Z,95004.56
2024-01-17T00:46:59.017Z,95007.78
2024-01-17T00:49:25.962Z,94999.19
2024-01-17T00:51:52.959Z,94998.19
2024-01-17T00:54:20.081Z,94995.56
2024-01-17T00:56:47.100Z,94998.44
2024-01-17T00:59:14.149Z,94985.50
2024-01-17T01:01:41.175Z,94982.16
2024-01-17T01:04:10.284Z,94982.03
2024-01-17T01:06:37.385Z,94989.47
2024-01-17T01:09:04.602Z,94989.94
2024-01-17T01:11:34.172Z,94977.13
2024-01-17T01:14:02.840Z,94966.03
2024-01-17T01:16:30.183Z,94970.13
2024-01-17T01:18:57.325Z,94968.66
2024-01-17T01:21:24.401Z,94981.81
2024-01-17T01:23:51.393Z,94965.53
2024-01-17T01:26:18.469Z,94958.91
2024-01-17T01:28:45.494Z,94971.16
2024-01-17T01:31:12.562Z,94970.38
2024-01-17T01:33:39.759Z,94968.88
2024-01-17T01:36:08.044Z,94956.03
2024-01-17T01:38:35.214Z,94948.72
2024-01-17T01:41:02.238Z,94941.81
2024-01-17T01:43:29.445Z,94943.66
2024-01-17T01:46:04.946Z,94945.25
2024-01-17T01:48:34.111Z,94942.84
2024-01-17T01:51:01.261Z,94941.81
2024-01-17T01:53:32.466Z,94928.41
2024-01-17T01:56:01.469Z,94922.34
2024-01-17T01:58:31.633Z,94912.38
2024-01-17T02:01:01.222Z,94908.94
2024-01-17T02:03:31.557Z,94900.69
2024-01-17T02:05:59.260Z,94897.13
2024-01-17T02:08:26.451Z,94902.84
2024-01-17T02:10:54.155Z,94891.97
2024-01-17T02:13:21.984Z,94903.44
2024-01-17T02:15:49.286Z,94896.78
2024-01-17T02:18:16.495Z,94883.81
2024-01-17T02:20:44.119Z,94891.38
2024-01-17T02:23:24.286Z,94884.75
2024-01-17T02:25:53.265Z,94879.47
2024-01-17T02:28:20.666Z,94874.63
2024-01-17T02:30:48.443Z,94871.53
2024-01-17T02:33:16.688Z,94876.44
2024-01-17T02:35:44.218Z,94861.31
2024-01-17T02:38:11.440Z,94874.88
2024-01-17T02:40:39.092Z,94867.31
2024-01-17T02:43:07.135Z,94861.91
2024-01-17T02:45:34.761Z,94861.78
2024-01-17T02:48:01.964Z,94861.31
2024-01-17T02:50:29.829Z,94860.38
2024-01-17T02:52:57.125Z,94855.31
2024-01-17T02:55:24.733Z,94858.78
2024-01-17T02:57:53.090Z,94863.69
2024-01-17T03:00:21.244Z,94856.13
2024-01-17T03:02:48.594Z,94848.44
2024-01-17T03:05:15.913Z,94838.78
2024-01-17T03:07:43.161Z,94846.53
2024-01-17T03:10:13.148Z,94842.97
2024-01-17T03:12:41.829Z,94838.38
2024-01-17T03:15:13.235Z,94838.25
2024-01-17T03:17:40.637Z,94843.97
2024-01-17T03:20:12.594Z,94831.72
2024-01-17T03:22:41.566Z,94836.47
2024-01-17T03:25:09.618Z,94832.34
2024-01-17T03:27:37.021Z,94825.81
2024-01-17T03:30:08.822Z,94821.00
2024-01-17T03:32:36.066Z,94833.09
2024-01-17T03:35:03.804Z,94831.25
2024-01-17T03:37:30.760Z,94823.41
2024-01-17T03:39:58.672Z,94833.03
2024-01-17T03:42:25.660Z,94837.03
2024-01-17T03:44:52.765Z,94834.25
2024-01-17T03:47:19.813Z,94831.72
2024-01-17T03:49:46.934Z,94820.56
2024-01-17T03:52:14.030Z,94824.16
2024-01-17T03:54:41.567Z,94833.31
2024-01-17T03:57:10.175Z,94822.19
2024-01-17T03:59:37.289Z,94808.75
2024-01-17T04:02:04.560Z,94807.28
2024-01-17T04:04:31.547Z,94803.03
2024-01-17T04:06:58.514Z,94791.09
2024-01-17T04:09:26.219Z,94796.59
2024-01-17T04:11:53.706Z,94780.53
2024-01-17T04:14:20.724Z,94768.47
2024-01-17T04:16:47.719Z,94764.88
2024-01-17T04:19:15.183Z,94756.25
2024-01-17T04:21:42.215Z,94745.13
2024-01-17T04:24:09.499Z,94740.59
2024-01-17T04:26:36.841Z,94729.59
2024-01-17T04:29:03.999Z,94732.63
2024-01-17T04:31:32.541Z,94718.53
2024-01-17T04:34:04.587Z,94713.59
2024-01-17T04:36:32.601Z,94706.72
2024-01-17T04:39:02.160Z,94703.81
2024-01-17T04:41:29.406Z,94696.63
2024-01-17T04:43:57.094Z,94689.44
2024-01-17T04:46:24.195Z,94686.25
2024-01-17T04:48:51.577Z,94679.47
2024-01-17T04:51:24.539Z,94685.84
2024-01-17T04:53:51.660Z,94682.81
2024-01-17T04:56:18.732Z,94679.09
2024-01-17T04:58:46.090Z,94675.09
2024-01-17T05:01:13.275Z,94675.34
2024-01-17T05:03:44.362Z,94672.94
2024-01-17T05:06:11.640Z,94672.69
2024-01-17T05:08:38.754Z,94677.63
2024-01-17T05:11:05.724Z,94667.50
2024-01-17T05:13:32.714Z,94661.81
2024-01-17T05:15:59.952Z,94663.09
2024-01-17T05:18:27.079Z,94656.09
2024-01-17T05:20:54.198Z,94654.09
2024-01-17T05:23:21.253Z,94656.09
2024-01-17T05:25:48.150Z,94653.53
2024-01-17T05:28:15.117Z,94648.47
2024-01-17T05:30:42.224Z,94637.47
2024-01-17T05:33:09.356Z,94643.59
2024-01-17T05:35:36.476Z,94643.06
2024-01-17T05:38:03.608Z,94642.53
2024-01-17T05:40:30.821Z,94627.66
2024-01-17T05:42:58.320Z,94615.59
2024-01-17T05:45:25.483Z,94615.59
2024-01-17T05:47:52.528Z,94613.19
2024-01-17T05:50:19.816Z,94600.16
2024-01-17T05:52:52.727Z,94610.41
2024-01-17T05:55:21.677Z,94604.16
2024-01-17T05:57:48.971Z,94608.94
2024-01-17T06:00:16.401Z,94592.84
2024-01-17T06:02:44.677Z,94597.09
2024-01-17T06:05:17.420Z,94594.31
2024-01-17T06:07:46.022Z,94582.63
2024-01-17T06:10:15.153Z,94573.19
2024-01-17T06:12:44.700Z,94567.19
2024-01-17T06:15:13.465Z,94574.09
2024-01-17T06:17:40.691Z,94566.53
2024-01-17T06:20:11.533Z,94567.31
2024-01-17T06:22:39.604Z,94574.63
2024-01-17T06:25:08.408Z,94571.56
2024-01-17T06:27:35.918Z,94564.78
2024-01-17T06:30:03.187Z,94561.47
2024-01-17T06:32:30.314Z,94554.53
2024-01-17T06:34:57.425Z,94540.75
2024-01-17T06:37:24.410Z,94540.06
2024-01-17T06:39:51.387Z,94533.28
2024-01-17T06:42:18.849Z,94536.06
2024-01-17T06:44:46.844Z,94536.88
2024-01-17T06:47:13.896Z,94535.13
2024-01-17T06:49:42.878Z,94520.38
2024-01-17T06:52:10.075Z,94509.34
2024-01-17T06:54:37.287Z,94500.69
2024-01-17T06:57:04.608Z,94499.78
2024-01-17T06:59:31.667Z,94496.69
2024-01-17T07:01:58.671Z,94476.63
2024-01-17T07:04:25.681Z,94479.97
2024-01-17T07:06:52.758Z,94472.63
2024-01-17T07:09:19.816Z,94476.63
2024-01-17T07:11:46.855Z,94473.44
2024-01-17T07:14:13.886Z,94461.44
2024-01-17T07:16:40.840Z,94466.09
2024-01-17T07:19:08.489Z,94455.19
2024-01-17T07:21:38.081Z,94459.28
2024-01-17T07:24:05.256Z,94466.97
2024-01-17T07:26:32.360Z,94459.72
2024-01-17T07:28:59.278Z,94468.34
2024-01-17T07:31:26.245Z,94455.56
2024-01-17T07:33:54.572Z,94443.03
2024-01-17T07:36:21.671Z,94446.63
2024-01-17T07:38:50.134Z,94440.69
2024-01-17T07:41:17.203Z,94450.03
2024-01-17T07:43:45.089Z,94448.16
2024-01-17T07:46:14.338Z,94433.28
2024-01-17T07:48:44.414Z,94423.72
2024-01-17T07:51:12.659Z,94421.19
2024-01-17T07:53:40.198Z,94409.34
2024-01-17T07:56:07.212Z,94400.47
2024-01-17T07:58:34.138Z,94404.28
2024-01-17T08:01:01.380Z,94392.47
2024-01-17T08:03:31.213Z,94388.34
2024-01-17T08:05:58.989Z,94379.19
2024-01-17T08:08:26.013Z,94362.13
2024-01-17T08:10:53.752Z,94352.81
2024-01-17T08:13:21.005Z,94358.31
2024-01-17T08:15:48.573Z,94336.22
2024-01-17T08:18:15.740Z,94336.22
2024-01-17T08:20:42.995Z,94320.47
2024-01-17T08:23:09.979Z,94333.75
2024-01-17T08:25:37.366Z,94337.72
2024-01-17T08:28:04.819Z,94329.34
2024-01-17T08:30:31.941Z,94333.47
2024-01-17T08:32:58.985Z,94317.88
2024-01-17T08:35:26.048Z,94325.47
2024-01-17T08:37:53.060Z,94304.44
2024-01-17T08:40:20.035Z,94290.22
2024-01-17T08:42:47.104Z,94286.25
2024-01-17T08:45:14.686Z,94289.00
2024-01-17T08:47:43.784Z,94281.41
2024-01-17T08:50:14.399Z,94269.84
2024-01-17T08:52:41.846Z,94281.25
2024-01-17T08:55:11.411Z,94262.75
2024-01-17T08:57:39.808Z,94256.78
2024-01-17T09:00:08.023Z,94258.59
2024-01-17T09:02:35.719Z,94253.53
2024-01-17T09:05:04.296Z,94239.66
2024-01-17T09:07:33.560Z,94231.56
2024-01-17T09:10:01.238Z,94238.69
2024-01-17T09:12:28.396Z,94235.38
2024-01-17T09:14:56.775Z,94246.59
2024-01-17T09:17:23.947Z,94253.75
2024-01-17T09:19:50.968Z,94250.78
2024-01-17T09:22:17.920Z,94251.84
2024-01-17T09:24:44.940Z,94252.50
2024-01-17T09:27:12.137Z,94246.50
2024-01-17T09:29:39.326Z,94236.25
2024-01-17T09:32:07.530Z,94221.56
2024-01-17T09:34:34.669Z,94212.72
2024-01-17T09:37:06.837Z,94202.94
2024-01-17T09:39:40.554Z,94201.03
2024-01-17T09:42:08.617Z,94214.81
2024-01-17T09:44:38.977Z,94196.44
2024-01-17T09:47:09.310Z,94207.34
2024-01-17T09:49:41.281Z,94206.59
2024-01-17T09:52:09.470Z,94226.03
2024-01-17T09:54:45.326Z,94214.97
2024-01-17T09:57:24.470Z,94213.28
2024-01-17T10:00:00.180Z,94199.09
2024-01-17T10:02:32.200Z,94195.69
2024-01-17T10:05:00.966Z,94198.56
2024-01-17T10:07:27.928Z,94194.31
2024-01-17T10:09:54.940Z,94166.41
2024-01-17T10:12:22.018Z,94159.31
2024-01-17T10:14:49.206Z,94151.78
2024-01-17T10:17:16.178Z,94140.09
2024-01-17T10:19:43.432Z,94129.81
2024-01-17T10:22:12.011Z,94116.97
2024-01-17T10:24:42.675Z,94115.25
2024-01-17T10:27:10.949Z,94100.50
2024-01-17T10:29:41.778Z,94102.59
2024-01-17T10:32:10.454Z,94105.59
2024-01-17T10:34:40.703Z,94095.75
2024-01-17T10:37:11.578Z,94103.50
2024-01-17T10:39:38.534Z,94100.81
2024-01-17T10:42:07.409Z,94084.19
2024-01-17T10:44:34.536Z,94084.00
2024-01-17T10:47:02.278Z,94082.72
2024-01-17T10:49:29.270Z,94080.50
2024-01-17T10:52:07.073Z,94086.84
2024-01-17T10:55:06.107Z,94091.25
2024-01-17T10:57:38.485Z,94088.56
2024-01-17T11:00:12.673Z,94086.16
2024-01-17T11:02:42.714Z,94093.78
2024-01-17T11:05:12.809Z,94098.22
2024-01-17T11:07:42.778Z,94093.16
2024-01-17T11:10:11.096Z,94101.53
2024-01-17T11:12:39.518Z,94109.16
2024-01-17T11:15:08.837Z,94101.06
2024-01-17T11:17:38.275Z,94090.13
2024-01-17T11:20:10.397Z,94089.06
2024-01-17T11:22:40.161Z,94074.16
2024-01-17T11:25:57.733Z,94080.03
2024-01-17T11:28:42.309Z,94069.09
2024-01-17T11:31:18.560Z,94073.06
2024-01-17T11:33:47.603Z,94076.09
2024-01-17T11:36:48.765Z,94108.25
2024-01-17T11:39:20.419Z,94084.16
2024-01-17T11:41:51.753Z,94099.06
2024-01-17T11:44:20.935Z,94086.06
2024-01-17T11:46:55.132Z,94100.50
2024-01-17T11:49:43.621Z,94088.44
2024-01-17T11:52:37.222Z,94073.53
2024-01-17T11:55:06.504Z,94084.31
2024-01-17T11:57:37.114Z,94074.50
2024-01-17T12:00:06.565Z,94075.44
2024-01-17T12:02:45.874Z,94079.88
2024-01-17T12:05:13.759Z,94066.41
2024-01-17T12:07:49.059Z,94074.16
2024-01-17T12:10:16.295Z,94077.63
2024-01-17T12:12:45.009Z,94058.25
2024-01-17T12:15:14.716Z,94066.16
2024-01-17T12:17:46.148Z,94059.03
2024-01-17T12:20:13.674Z,94050.03
2024-01-17T12:22:40.833Z,94040.94
2024-01-17T12:25:09.436Z,94026.03
2024-01-17T12:27:36.408Z,94017.94
2024-01-17T12:30:08.688Z,94033.91
2024-01-17T12:32:36.698Z,94031.81
2024-01-17T12:35:05.008Z,94021.63
2024-01-17T12:37:32.346Z,94012.41
2024-01-17T12:39:59.448Z,94015.47
2024-01-17T12:42:26.623Z,93998.94
2024-01-17T12:44:54.543Z,94018.75
2024-01-17T12:47:21.872Z,93999.78
2024-01-17T12:49:48.918Z,93986.75
2024-01-17T12:52:19.792Z,93994.78
2024-01-17T12:54:47.888Z,93995.50
2024-01-17T12:57:15.364Z,94002.00
2024-01-17T12:59:43.438Z,93988.28
2024-01-17T13:02:16.471Z,93977.41
2024-01-17T13:05:13.405Z,93987.66
2024-01-17T13:07:42.451Z,93965.56
2024-01-17T13:10:20.540Z,93967.97
2024-01-17T13:12:49.039Z,93970.31
2024-01-17T13:15:16.602Z,93973.19
2024-01-17T13:17:49.889Z,93967.31
2024-01-17T13:20:23.821Z,93957.25
2024-01-17T13:22:55.076Z,93968.53
2024-01-17T13:25:26.004Z,93970.47
2024-01-17T13:28:04.411Z,93970.47
2024-01-17T13:30:38.686Z,93963.19
2024-01-17T13:33:07.977Z,93966.88
2024-01-17T13:35:42.064Z,93968.53
2024-01-17T13:38:09.234Z,93957.91
2024-01-17T13:40:38.320Z,93975.44
2024-01-17T13:43:06.379Z,93972.91
2024-01-17T13:45:34.501Z,93963.88
2024-01-17T13:48:03.310Z,93958.16
2024-01-17T13:50:30.497Z,93943.44
2024-01-17T13:53:08.932Z,93947.22
2024-01-17T13:55:36.308Z,93944.66
2024-01-17T13:58:03.320Z,93947.53
2024-01-17T14:00:30.943Z,93944.06
2024-01-17T14:03:02.314Z,93950.09
2024-01-17T14:05:30.601Z,93944.66
2024-01-17T14:07:58.407Z,93946.84
2024-01-17T14:10:25.702Z,93940.47
2024-01-17T14:12:52.917Z,93929.19
2024-01-17T14:15:21.189Z,93929.00
2024-01-17T14:17:51.278Z,93927.25
2024-01-17T14:20:18.545Z,93928.63
2024-01-17T14:22:50.065Z,93934.50
2024-01-17T14:25:17.372Z,93936.53
2024-01-17T14:27:46.149Z,93927.34
2024-01-17T14:30:15.114Z,93932.06
2024-01-17T14:32:43.675Z,93923.91
2024-01-17T14:35:12.827Z,93922.44
2024-01-17T14:37:43.514Z,93916.47
2024-01-17T14:40:11.310Z,93898.94
2024-01-17T14:42:40.118Z,93894.13
2024-01-17T14:45:12.833Z,93898.88
2024-01-17T14:47:40.916Z,93907.72
2024-01-17T14:50:09.046Z,93904.78
2024-01-17T14:52:36.119Z,93899.56
2024-01-17T14:55:03.194Z,93898.16
2024-01-17T14:57:30.154Z,93896.03
2024-01-17T14:59:57.187Z,93891.91
2024-01-17T15:02:24.276Z,93896.41
2024-01-17T15:04:51.825Z,93897.09
2024-01-17T15:07:18.768Z,93884.47
2024-01-17T15:12:15.538Z,93889.91
2024-01-17T15:14:44.395Z,93893.44
2024-01-17T15:17:11.496Z,93890.09
2024-01-17T15:19:40.062Z,93905.63
2024-01-17T15:22:07.186Z,93876.50
2024-01-17T15:24:34.356Z,93900.16
2024-01-17T15:27:01.436Z,93884.13
2024-01-17T15:29:28.665Z,93881.59
2024-01-17T15:31:55.643Z,93887.63
2024-01-17T15:34:22.708Z,93884.22
2024-01-17T15:36:51.065Z,93887.81
2024-01-17T15:39:21.188Z,93888.84
2024-01-17T15:41:48.602Z,93879.91
2024-01-17T15:44:15.610Z,93874.22
2024-01-17T15:46:42.560Z,93871.50
2024-01-17T15:49:12.849Z,93873.41
2024-01-17T15:51:39.865Z,93871.84
2024-01-17T15:54:06.908Z,93871.25
2024-01-17T15:56:36.363Z,93866.22
2024-01-17T15:59:04.887Z,93865.44
2024-01-17T16:01:31.901Z,93864.66
2024-01-17T16:03:59.185Z,93862.13
2024-01-17T16:06:26.256Z,93862.19
2024-01-17T16:08:53.915Z,93856.16
2024-01-17T16:11:22.374Z,93859.66
2024-01-17T16:13:49.476Z,93858.09
2024-01-17T16:16:19.040Z,93875.25
2024-01-17T16:18:49.241Z,93874.97
2024-01-17T16:21:16.602Z,93874.38
2024-01-17T16:23:46.810Z,93873.38
2024-01-17T16:26:14.310Z,93870.84
2024-01-17T16:28:41.261Z,93867.16
2024-01-17T16:31:11.895Z,93863.50
2024-01-17T16:33:39.557Z,93850.53
2024-01-17T16:36:07.541Z,93850.53
2024-01-17T16:38:35.011Z,93844.41
2024-01-17T16:41:01.963Z,93851.56
2024-01-17T16:43:28.990Z,93843.50
2024-01-17T16:45:59.010Z,93843.03
2024-01-17T16:48:26.450Z,93835.59
2024-01-17T16:50:53.500Z,93838.56
2024-01-17T16:53:23.617Z,93835.69
2024-01-17T16:55:50.662Z,93839.13
2024-01-17T16:58:17.709Z,93839.94
2024-01-17T17:00:44.720Z,93844.56
2024-01-17T17:03:11.785Z,93844.97
2024-01-17T17:05:39.665Z,93848.81
2024-01-17T17:08:07.111Z,93854.22
2024-01-17T17:10:34.189Z,93862.81
2024-01-17T17:13:01.158Z,93861.59
2024-01-17T17:15:28.279Z,93866.66
2024-01-17T17:17:55.971Z,93862.25
2024-01-17T17:20:25.919Z,93870.84
2024-01-17T17:22:54.311Z,93871.66
2024-01-17T17:25:21.328Z,93879.53
2024-01-17T17:27:48.479Z,93878.84
2024-01-17T17:30:17.108Z,93871.69
2024-01-17T17:32:45.486Z,93871.97
2024-01-17T17:35:12.754Z,93878.97
2024-01-17T17:37:39.738Z,93881.13
2024-01-17T17:40:07.828Z,93873.69
2024-01-17T17:42:34.907Z,93877.66
2024-01-17T17:45:02.206Z,93887.63
2024-01-17T17:47:29.300Z,93880.00
2024-01-17T17:49:56.575Z,93890.34
2024-01-17T17:52:23.699Z,93888.75
2024-01-17T17:54:50.697Z,93891.91
2024-01-17T17:57:17.840Z,93899.19
2024-01-17T17:59:46.154Z,93894.72
2024-01-17T18:02:13.791Z,93902.63
2024-01-17T18:04:41.311Z,93890.56
2024-01-17T18:07:09.623Z,93882.06
2024-01-17T18:09:36.995Z,93882.78
2024-01-17T18:12:04.362Z,93879.53
2024-01-17T18:14:31.410Z,93872.38
2024-01-17T18:16:58.996Z,93870.88
2024-01-17T18:19:25.955Z,93867.03
2024-01-17T18:21:53.235Z,93870.00
2024-01-17T18:24:20.281Z,93870.28
2024-01-17T18:26:48.593Z,93864.03
2024-01-17T18:29:15.704Z,93866.25
2024-01-17T18:31:42.764Z,93870.53
2024-01-17T18:34:11.217Z,93877.19
2024-01-17T18:36:38.579Z,93881.50
2024-01-17T18:39:05.711Z,93877.13
2024-01-17T18:41:32.718Z,93876.50
2024-01-17T18:43:59.810Z,93887.09
2024-01-17T18:46:27.017Z,93881.94
2024-01-17T18:48:54.125Z,93889.56
2024-01-17T18:51:21.220Z,93886.94
2024-01-17T18:53:49.588Z,93885.50
2024-01-17T18:56:16.836Z,93877.63
2024-01-17T18:58:43.990Z,93879.47
2024-01-17T19:01:11.081Z,93885.41
2024-01-17T19:03:38.257Z,93885.88
2024-01-17T19:06:05.587Z,93883.75
2024-01-17T19:08:32.643Z,93898.59
2024-01-17T19:10:59.637Z,93904.81
2024-01-17T19:13:26.650Z,93899.28
2024-01-17T19:15:53.648Z,93907.06
2024-01-17T19:18:20.654Z,93912.78
2024-01-17T19:20:50.542Z,93912.84
2024-01-17T19:23:17.522Z,93917.44
2024-01-17T19:25:44.472Z,93917.69
2024-01-17T19:28:11.423Z,93923.31
2024-01-17T19:30:39.214Z,93910.25
2024-01-17T19:33:07.564Z,93916.75
2024-01-17T19:35:34.679Z,93910.19
2024-01-17T19:38:02.388Z,93915.16
2024-01-17T19:40:31.792Z,93911.91
2024-01-17T19:43:00.518Z,93905.94
2024-01-17T19:45:27.707Z,93916.38
2024-01-17T19:47:55.230Z,93916.38
2024-01-17T19:50:22.454Z,93917.78
2024-01-17T19:52:49.649Z,93907.22
2024-01-17T19:55:18.371Z,93909.44
2024-01-17T19:57:46.358Z,93907.84
2024-01-17T20:00:30.266Z,93913.66
2024-01-17T20:02:58.283Z,93906.91
2024-01-17T20:05:27.220Z,93907.69
2024-01-17T20:07:55.350Z,93911.56
2024-01-17T20:10:23.436Z,93902.59
2024-01-17T20:12:51.029Z,93908.09
2024-01-17T20:15:18.303Z,93891.34
2024-01-17T20:17:45.450Z,93893.09
2024-01-17T20:20:12.786Z,93882.72
2024-01-17T20:22:39.801Z,93885.72
2024-01-17T20:25:09.533Z,93882.78
2024-01-17T20:27:37.263Z,93875.81
2024-01-17T20:30:04.876Z,93874.66
2024-01-17T20:32:31.924Z,93875.25
2024-01-17T20:34:58.988Z,93876.84
2024-01-17T20:37:26.030Z,93881.59
2024-01-17T20:39:53.115Z,93874.38
2024-01-17T20:42:20.129Z,93869.28
2024-01-17T20:44:47.364Z,93874.81
2024-01-17T20:47:14.442Z,93871.72
2024-01-17T20:49:41.463Z,93877.56
2024-01-17T20:52:08.813Z,93865.28
2024-01-17T20:54:39.378Z,93870.97
2024-01-17T20:57:31.432Z,93862.97
2024-01-17T21:00:00.076Z,93861.94
2024-01-17T21:02:27.490Z,93859.53
2024-01-17T21:04:54.533Z,93866.91
2024-01-17T21:07:24.477Z,93866.06
2024-01-17T21:09:52.805Z,93870.72
2024-01-17T21:12:19.968Z,93867.81
2024-01-17T21:14:47.086Z,93874.50
2024-01-17T21:17:14.203Z,93878.78
2024-01-17T21:19:41.825Z,93890.78
2024-01-17T21:22:08.884Z,93891.56
2024-01-17T21:24:35.932Z,93896.41
2024-01-17T21:27:02.926Z,93895.91
2024-01-17T21:29:29.998Z,93897.56
2024-01-17T21:31:57.070Z,93899.84
2024-01-17T21:34:24.500Z,93898.84
2024-01-17T21:36:53.097Z,93896.97
2024-01-17T21:39:21.008Z,93901.72
2024-01-17T21:41:48.136Z,93905.56
2024-01-17T21:44:15.306Z,93902.75
2024-01-17T21:46:43.034Z,93907.19
2024-01-17T21:49:10.227Z,93906.13
2024-01-17T21:51:39.915Z,93904.25
2024-01-17T21:54:07.471Z,93912.75
2024-01-17T21:56:34.748Z,93913.78
2024-01-17T21:59:01.852Z,93901.31
2024-01-17T22:01:28.980Z,93910.94
2024-01-17T22:03:56.570Z,93911.63
2024-01-17T22:06:24.635Z,93905.00
2024-01-17T22:08:55.647Z,93904.88
2024-01-17T22:11:26.482Z,93910.06
2024-01-17T22:13:53.655Z,93901.03
2024-01-17T22:16:20.692Z,93906.13
2024-01-17T22:18:47.828Z,93915.38
2024-01-17T22:21:14.910Z,93912.31
2024-01-17T22:23:42.101Z,93909.97
2024-01-17T22:26:09.638Z,93914.75
2024-01-17T22:28:36.703Z,93913.19
2024-01-17T22:31:05.785Z,93913.41
2024-01-17T22:33:33.109Z,93918.34
2024-01-17T22:36:00.368Z,93926.56
2024-01-17T22:38:27.494Z,93934.00
2024-01-17T22:40:54.511Z,93928.72
2024-01-17T22:43:21.585Z,93939.41
2024-01-17T22:45:48.654Z,93930.94
2024-01-17T22:48:15.791Z,93931.09
2024-01-17T22:50:42.823Z,93922.88
2024-01-17T22:53:10.714Z,93934.09
2024-01-17T22:55:37.838Z,93930.19
2024-01-17T22:58:05.464Z,93927.03
2024-01-17T23:00:32.985Z,93938.41
2024-01-17T23:03:00.249Z,93932.91
2024-01-17T23:05:27.372Z,93935.09
2024-01-17T23:08:01.567Z,93937.00
2024-01-17T23:10:33.007Z,93942.31
2024-01-17T23:13:00.274Z,93939.75
2024-01-17T23:15:27.581Z,93931.91
2024-01-17T23:17:55.037Z,93920.75
2024-01-17T23:20:22.176Z,93913.09
2024-01-17T23:22:49.202Z,93923.28
2024-01-17T23:25:16.498Z,93931.34
2024-01-17T23:27:43.549Z,93925.66
2024-01-17T23:30:11.265Z,93917.41
2024-01-17T23:32:38.352Z,93925.09
2024-01-17T23:35:06.760Z,93925.09
2024-01-17T23:37:33.781Z,93915.28
2024-01-17T23:40:00.845Z,93932.94
2024-01-17T23:42:27.895Z,93931.34
2024-01-17T23:44:54.935Z,93934.13
2024-01-17T23:47:23.434Z,93936.88
2024-01-17T23:49:50.769Z,93939.63
2024-01-17T23:52:17.833Z,93934.69
2024-01-17T23:54:44.887Z,93934.28
2024-01-17T23:57:12.268Z,93940.34
2024-01-17T23:59:39.377Z,93936.03
